Time;durP1;ratioP1;P1;durP2;ratioP2;P2;SDS_P1;SDS_P2;PMS_P1;PMS_P2;Temp;Humidity;BMP_temperature;BMP_pressure;BME280_temperature;BME280_humidity;BME280_pressure;Samples;Min_cycle;Max_cycle;Signal;HPM_P1;HPM_P2
2023/09/28 00:01:35;;;;;;;0.40;0.40;;;;;;;;;;5074522;28;20464;-79
2023/09/28 00:04:02;;;;;;;0.45;0.45;;;;;;;;;;5077945;28;20033;-76
2023/09/28 00:06:28;;;;;;;0.40;0.40;;;;;;;;;;5095952;28;20020;-76
2023/09/28 00:08:55;;;;;;;0.40;0.40;;;;;;;;;;5083409;28;20028;-78
2023/09/28 00:11:21;;;;;;;0.68;0.68;;;;;;;;;;5074498;28;20021;-78
2023/09/28 00:13:47;;;;;;;0.40;0.40;;;;;;;;;;5074245;28;20042;-78
2023/09/28 00:16:14;;;;;;;0.45;0.45;;;;;;;;;;5075357;28;20024;-79
2023/09/28 00:18:40;;;;;;;0.40;0.40;;;;;;;;;;5074228;28;20045;-79
2023/09/28 00:21:06;;;;;;;0.60;0.60;;;;;;;;;;5074359;28;20035;-79
2023/09/28 00:23:33;;;;;;;0.45;0.45;;;;;;;;;;5073832;28;20502;-80
2023/09/28 00:25:59;;;;;;;0.50;0.50;;;;;;;;;;5074306;28;20025;-79
2023/09/28 00:28:25;;;;;;;0.50;0.50;;;;;;;;;;5073858;28;20110;-79
2023/09/28 00:30:52;;;;;;;0.40;0.40;;;;;;;;;;5074133;28;20020;-80
2023/09/28 00:33:18;;;;;;;0.55;0.55;;;;;;;;;;5074154;28;20047;-80
2023/09/28 00:35:44;;;;;;;0.50;0.50;;;;;;;;;;5074156;28;20047;-79
2023/09/28 00:38:11;;;;;;;0.50;0.50;;;;;;;;;;5074028;28;20032;-79
2023/09/28 00:40:39;;;;;;;0.45;0.45;;;;;;;;;;5073876;28;20023;-79
2023/09/28 00:43:06;;;;;;;0.50;0.50;;;;;;;;;;5073314;28;20020;-79
2023/09/28 00:45:32;;;;;;;0.77;0.77;;;;;;;;;;5072936;28;20078;-80
2023/09/28 00:48:02;;;;;;;0.50;0.50;;;;;;;;;;5073645;28;20029;-80
2023/09/28 00:50:33;;;;;;;0.50;0.50;;;;;;;;;;5073792;28;20372;-80
2023/09/28 00:53:07;;;;;;;0.50;0.50;;;;;;;;;;5073774;28;20025;-80
2023/09/28 00:55:33;;;;;;;0.60;0.60;;;;;;;;;;5074756;28;20096;-80
2023/09/28 00:58:00;;;;;;;0.50;0.50;;;;;;;;;;5073303;28;20020;-79
2023/09/28 01:00:33;;;;;;;0.50;0.50;;;;;;;;;;5074745;28;20100;-79
2023/09/28 01:03:00;;;;;;;0.75;0.75;;;;;;;;;;5073574;28;20017;-78
2023/09/28 01:05:49;;;;;;;0.52;0.52;;;;;;;;;;5074302;28;20483;-79
2023/09/28 01:08:15;;;;;;;0.40;0.40;;;;;;;;;;5074331;28;20476;-80
2023/09/28 01:10:42;;;;;;;0.52;0.52;;;;;;;;;;5074731;28;20028;-80
2023/09/28 01:13:11;;;;;;;0.50;0.50;;;;;;;;;;5073274;28;20020;-78
2023/09/28 01:15:40;;;;;;;0.73;0.70;;;;;;;;;;5073250;28;20021;-79
2023/09/28 01:18:10;;;;;;;0.43;0.43;;;;;;;;;;5072756;28;20471;-80
2023/09/28 01:20:37;;;;;;;0.50;0.50;;;;;;;;;;5073189;28;20021;-79
2023/09/28 01:23:07;;;;;;;0.50;0.50;;;;;;;;;;5072857;28;20078;-79
2023/09/28 01:25:34;;;;;;;0.43;0.43;;;;;;;;;;5072745;28;20021;-79
2023/09/28 01:28:00;;;;;;;0.50;0.50;;;;;;;;;;5073014;28;20024;-81
2023/09/28 01:30:30;;;;;;;0.50;0.50;;;;;;;;;;5073009;28;20025;-79
2023/09/28 01:32:56;;;;;;;0.50;0.50;;;;;;;;;;5073987;28;20021;-80
2023/09/28 01:35:22;;;;;;;0.43;0.43;;;;;;;;;;5072905;28;20034;-79
2023/09/28 01:38:00;;;;;;;0.40;0.40;;;;;;;;;;5073015;28;20111;-78
2023/09/28 01:40:26;;;;;;;0.52;0.52;;;;;;;;;;5072654;28;20495;-80
2023/09/28 01:42:53;;;;;;;0.60;0.60;;;;;;;;;;5074639;28;20024;-78
2023/09/28 01:45:20;;;;;;;0.50;0.50;;;;;;;;;;5088295;28;20028;-80
2023/09/28 01:47:46;;;;;;;0.50;0.50;;;;;;;;;;5082018;28;20055;-80
2023/09/28 01:50:12;;;;;;;0.50;0.50;;;;;;;;;;5073137;28;20036;-79
2023/09/28 01:52:38;;;;;;;0.40;0.40;;;;;;;;;;5072375;28;20070;-79
2023/09/28 01:55:04;;;;;;;0.50;0.50;;;;;;;;;;5072618;28;20024;-78
2023/09/28 01:57:34;;;;;;;0.60;0.60;;;;;;;;;;5072246;28;20029;-81
2023/09/28 02:00:00;;;;;;;0.50;0.50;;;;;;;;;;5073818;28;20028;-82
2023/09/28 02:02:27;;;;;;;0.60;0.60;;;;;;;;;;5072500;28;20024;-81
2023/09/28 02:04:53;;;;;;;0.50;0.50;;;;;;;;;;5073493;28;20017;-82
2023/09/28 02:07:19;;;;;;;0.50;0.50;;;;;;;;;;5072191;28;20115;-82
2023/09/28 02:09:45;;;;;;;0.50;0.50;;;;;;;;;;5073561;28;20040;-79
2023/09/28 02:12:12;;;;;;;0.50;0.50;;;;;;;;;;5072494;28;20020;-79
2023/09/28 02:14:38;;;;;;;0.50;0.50;;;;;;;;;;5072419;28;20056;-79
2023/09/28 02:17:05;;;;;;;0.40;0.40;;;;;;;;;;5072397;28;20021;-81
2023/09/28 02:19:31;;;;;;;0.50;0.50;;;;;;;;;;5072054;28;20060;-82
2023/09/28 02:21:57;;;;;;;0.55;0.55;;;;;;;;;;5072071;28;20021;-81
2023/09/28 02:24:23;;;;;;;0.47;0.47;;;;;;;;;;5073190;28;20021;-83
2023/09/28 02:26:52;;;;;;;0.70;0.70;;;;;;;;;;5073196;28;20059;-79
2023/09/28 02:29:18;;;;;;;0.55;0.55;;;;;;;;;;5071621;28;20056;-82
2023/09/28 02:31:44;;;;;;;0.60;0.60;;;;;;;;;;5072753;28;20016;-83
2023/09/28 02:34:10;;;;;;;0.60;0.60;;;;;;;;;;5072429;28;20388;-81
2023/09/28 02:36:36;;;;;;;0.50;0.50;;;;;;;;;;5073898;28;20032;-81
2023/09/28 02:39:07;;;;;;;0.50;0.50;;;;;;;;;;5072295;28;20028;-83
2023/09/28 02:41:33;;;;;;;0.50;0.50;;;;;;;;;;5071945;28;20016;-84
2023/09/28 02:44:00;;;;;;;0.68;0.68;;;;;;;;;;5072265;28;20035;-84
2023/09/28 02:46:26;;;;;;;0.55;0.55;;;;;;;;;;5071941;28;20029;-82
2023/09/28 02:48:52;;;;;;;0.52;0.52;;;;;;;;;;5071752;28;20077;-82
2023/09/28 02:51:19;;;;;;;0.50;0.50;;;;;;;;;;5076944;28;20031;-79
2023/09/28 02:53:45;;;;;;;0.50;0.50;;;;;;;;;;5091021;28;20058;-78
2023/09/28 02:56:15;;;;;;;0.40;0.40;;;;;;;;;;5077259;28;20028;-81
2023/09/28 02:58:41;;;;;;;0.50;0.50;;;;;;;;;;5072095;28;20108;-82
2023/09/28 03:01:08;;;;;;;0.30;0.30;;;;;;;;;;5072055;28;20040;-81
2023/09/28 03:03:34;;;;;;;0.50;0.50;;;;;;;;;;5071681;28;20119;-81
2023/09/28 03:06:00;;;;;;;0.50;0.50;;;;;;;;;;5072791;28;20117;-80
2023/09/28 03:08:27;;;;;;;0.50;0.50;;;;;;;;;;5074967;28;20025;-81
2023/09/28 03:10:53;;;;;;;0.50;0.50;;;;;;;;;;5075330;28;20361;-81
2023/09/28 03:13:19;;;;;;;0.50;0.50;;;;;;;;;;5075686;28;20028;-80
2023/09/28 03:15:46;;;;;;;0.50;0.50;;;;;;;;;;5075567;28;20021;-82
2023/09/28 03:18:12;;;;;;;0.50;0.50;;;;;;;;;;5075106;28;20032;-82
2023/09/28 03:20:41;;;;;;;0.55;0.55;;;;;;;;;;5075483;28;20024;-81
2023/09/28 03:23:08;;;;;;;0.50;0.50;;;;;;;;;;5075419;28;20460;-82
2023/09/28 03:25:37;;;;;;;0.47;0.47;;;;;;;;;;5075111;28;20403;-82
2023/09/28 03:28:03;;;;;;;0.50;0.50;;;;;;;;;;5076597;28;20017;-81
2023/09/28 03:30:30;;;;;;;0.52;0.52;;;;;;;;;;5074990;28;20441;-83
2023/09/28 03:33:00;;;;;;;0.50;0.50;;;;;;;;;;5075127;28;20021;-80
2023/09/28 03:35:26;;;;;;;0.52;0.52;;;;;;;;;;5075007;28;20082;-82
2023/09/28 03:37:54;;;;;;;0.73;0.73;;;;;;;;;;5074579;28;20020;-82
2023/09/28 03:40:20;;;;;;;0.50;0.50;;;;;;;;;;5074995;28;20116;-83
2023/09/28 03:42:50;;;;;;;0.50;0.50;;;;;;;;;;5075108;28;20021;-83
2023/09/28 03:45:20;;;;;;;0.40;0.40;;;;;;;;;;5074916;28;20020;-82
2023/09/28 03:47:48;;;;;;;0.50;0.50;;;;;;;;;;5075115;28;20078;-82
2023/09/28 03:50:14;;;;;;;0.40;0.40;;;;;;;;;;5076147;28;20044;-82
2023/09/28 03:52:41;;;;;;;0.50;0.50;;;;;;;;;;5074790;28;20031;-83
2023/09/28 03:55:11;;;;;;;0.60;0.60;;;;;;;;;;5074848;28;20107;-82
2023/09/28 03:57:37;;;;;;;0.50;0.50;;;;;;;;;;5074891;28;20354;-82
2023/09/28 04:00:04;;;;;;;0.50;0.50;;;;;;;;;;5074421;28;20035;-83
2023/09/28 04:02:31;;;;;;;0.50;0.50;;;;;;;;;;5075052;28;20027;-82
2023/09/28 04:04:57;;;;;;;0.55;0.55;;;;;;;;;;5074661;28;20032;-81
2023/09/28 04:07:23;;;;;;;0.40;0.40;;;;;;;;;;5074420;28;20173;-81
2023/09/28 04:09:49;;;;;;;0.60;0.60;;;;;;;;;;5074569;28;20480;-82
2023/09/28 04:12:16;;;;;;;0.50;0.50;;;;;;;;;;5074201;28;20108;-84
2023/09/28 04:14:42;;;;;;;0.60;0.60;;;;;;;;;;5074610;28;20020;-80
2023/09/28 04:17:08;;;;;;;0.50;0.50;;;;;;;;;;5074962;28;20032;-82
2023/09/28 04:19:37;;;;;;;0.57;0.57;;;;;;;;;;5074463;28;20053;-81
2023/09/28 04:22:03;;;;;;;0.50;0.50;;;;;;;;;;5075515;28;20031;-82
2023/09/28 04:24:30;;;;;;;0.50;0.50;;;;;;;;;;5076195;28;20021;-82
2023/09/28 04:26:58;;;;;;;0.60;0.60;;;;;;;;;;5074359;28;20024;-82
2023/09/28 04:29:27;;;;;;;0.60;0.60;;;;;;;;;;5074187;28;20036;-82
2023/09/28 04:31:56;;;;;;;0.50;0.50;;;;;;;;;;5074342;28;20016;-82
2023/09/28 04:34:22;;;;;;;0.55;0.55;;;;;;;;;;5073829;28;20036;-82
2023/09/28 04:36:50;;;;;;;0.45;0.45;;;;;;;;;;5074029;28;20107;-83
2023/09/28 04:39:17;;;;;;;0.50;0.50;;;;;;;;;;5075321;28;20056;-82
2023/09/28 04:41:43;;;;;;;0.40;0.40;;;;;;;;;;5073676;28;20025;-82
2023/09/28 04:44:13;;;;;;;0.50;0.50;;;;;;;;;;5074001;28;20017;-83
2023/09/28 04:46:39;;;;;;;0.50;0.50;;;;;;;;;;5073844;28;20028;-81
2023/09/28 04:49:05;;;;;;;1.00;0.75;;;;;;;;;;5073429;28;20528;-80
2023/09/28 04:51:31;;;;;;;0.40;0.40;;;;;;;;;;5073817;28;20021;-80
2023/09/28 04:53:59;;;;;;;0.60;0.60;;;;;;;;;;5073771;28;20383;-82
2023/09/28 04:56:25;;;;;;;0.50;0.50;;;;;;;;;;5075013;28;20025;-82
2023/09/28 04:58:51;;;;;;;0.60;0.60;;;;;;;;;;5073706;28;20391;-81
2023/09/28 05:01:17;;;;;;;0.63;0.63;;;;;;;;;;5073224;28;20021;-81
2023/09/28 05:03:43;;;;;;;0.70;0.70;;;;;;;;;;5073615;28;20468;-82
2023/09/28 05:06:10;;;;;;;0.60;0.60;;;;;;;;;;5074870;28;20021;-81
2023/09/28 05:08:36;;;;;;;0.50;0.50;;;;;;;;;;5073146;28;20458;-81
2023/09/28 05:11:02;;;;;;;0.43;0.43;;;;;;;;;;5073360;28;20027;-82
2023/09/28 05:13:31;;;;;;;0.70;0.70;;;;;;;;;;5073967;28;20025;-82
2023/09/28 05:15:57;;;;;;;0.50;0.50;;;;;;;;;;5073054;28;20130;-81
2023/09/28 05:18:24;;;;;;;0.50;0.50;;;;;;;;;;5073070;28;20552;-79
2023/09/28 05:20:50;;;;;;;0.50;0.50;;;;;;;;;;5073495;28;20123;-81
2023/09/28 05:23:16;;;;;;;0.50;0.50;;;;;;;;;;5073093;28;20021;-82
2023/09/28 05:25:43;;;;;;;0.50;0.50;;;;;;;;;;5073337;28;20017;-80
2023/09/28 05:28:09;;;;;;;0.50;0.50;;;;;;;;;;5074597;28;20025;-82
2023/09/28 05:30:36;;;;;;;0.57;0.57;;;;;;;;;;5072566;28;20361;-82
2023/09/28 05:33:02;;;;;;;0.45;0.45;;;;;;;;;;5073358;28;20104;-80
2023/09/28 05:35:31;;;;;;;0.60;0.60;;;;;;;;;;5074622;28;20031;-82
2023/09/28 05:37:57;;;;;;;0.55;0.55;;;;;;;;;;5077765;28;20051;-80
2023/09/28 05:40:23;;;;;;;0.50;0.50;;;;;;;;;;5081677;28;20070;-82
2023/09/28 05:42:49;;;;;;;0.52;0.52;;;;;;;;;;5073203;28;20095;-83
2023/09/28 05:45:16;;;;;;;0.47;0.47;;;;;;;;;;5072641;28;20052;-83
2023/09/28 05:47:42;;;;;;;1.27;0.63;;;;;;;;;;5072543;28;20027;-82
2023/09/28 05:50:08;;;;;;;0.60;0.60;;;;;;;;;;5072308;28;20035;-81
2023/09/28 05:52:56;;;;;;;0.47;0.47;;;;;;;;;;5073719;28;20024;-82
2023/09/28 05:55:25;;;;;;;0.40;0.40;;;;;;;;;;5072499;28;20021;-83
2023/09/28 05:57:51;;;;;;;0.50;0.50;;;;;;;;;;5073546;28;20021;-81
2023/09/28 06:00:18;;;;;;;0.60;0.60;;;;;;;;;;5072502;28;20024;-80
2023/09/28 06:02:44;;;;;;;0.60;0.60;;;;;;;;;;5072585;28;20112;-79
2023/09/28 06:05:11;;;;;;;0.50;0.50;;;;;;;;;;5072299;28;20020;-80
2023/09/28 06:07:38;;;;;;;0.50;0.50;;;;;;;;;;5072989;28;20024;-81
2023/09/28 06:10:08;;;;;;;0.50;0.50;;;;;;;;;;5073364;28;20025;-81
2023/09/28 06:12:34;;;;;;;0.50;0.50;;;;;;;;;;5072238;28;20020;-81
2023/09/28 06:15:00;;;;;;;0.50;0.50;;;;;;;;;;5072401;28;20021;-80
2023/09/28 06:17:26;;;;;;;0.52;0.52;;;;;;;;;;5072472;28;20059;-79
2023/09/28 06:19:52;;;;;;;0.60;0.60;;;;;;;;;;5071978;28;20051;-82
2023/09/28 06:22:18;;;;;;;0.50;0.50;;;;;;;;;;5072423;28;20030;-81
2023/09/28 06:24:44;;;;;;;0.50;0.50;;;;;;;;;;5073342;28;20100;-80
2023/09/28 06:27:11;;;;;;;0.55;0.55;;;;;;;;;;5072201;28;20063;-82
2023/09/28 06:29:37;;;;;;;0.50;0.50;;;;;;;;;;5071993;28;20024;-80
2023/09/28 06:32:04;;;;;;;0.60;0.60;;;;;;;;;;5072888;28;20380;-82
2023/09/28 06:34:30;;;;;;;0.60;0.60;;;;;;;;;;5072117;28;20222;-80
2023/09/28 06:36:56;;;;;;;0.55;0.55;;;;;;;;;;5072328;28;20024;-80
2023/09/28 06:39:22;;;;;;;0.60;0.60;;;;;;;;;;5071989;28;20146;-81
2023/09/28 06:41:49;;;;;;;0.52;0.52;;;;;;;;;;5072223;28;20024;-80
2023/09/28 06:44:15;;;;;;;0.40;0.40;;;;;;;;;;5076253;28;20017;-79
2023/09/28 06:46:43;;;;;;;0.50;0.50;;;;;;;;;;5075924;28;20118;-80
2023/09/28 06:49:11;;;;;;;0.40;0.40;;;;;;;;;;5076193;28;20032;-81
2023/09/28 06:51:37;;;;;;;0.50;0.50;;;;;;;;;;5076183;28;20029;-81
2023/09/28 06:54:04;;;;;;;0.63;0.63;;;;;;;;;;5075688;28;20048;-81
2023/09/28 06:56:30;;;;;;;0.40;0.40;;;;;;;;;;5076610;28;20465;-80
2023/09/28 06:58:57;;;;;;;0.50;0.50;;;;;;;;;;5075925;28;20025;-79
2023/09/28 07:01:24;;;;;;;0.50;0.50;;;;;;;;;;5075763;28;20099;-80
2023/09/28 07:03:52;;;;;;;0.50;0.50;;;;;;;;;;5075914;28;20032;-80
2023/09/28 07:06:21;;;;;;;0.50;0.50;;;;;;;;;;5076809;28;20013;-79
2023/09/28 07:08:47;;;;;;;0.50;0.50;;;;;;;;;;5075405;28;20035;-80
2023/09/28 07:11:13;;;;;;;0.60;0.60;;;;;;;;;;5075673;28;20074;-79
2023/09/28 07:13:39;;;;;;;0.40;0.40;;;;;;;;;;5076629;28;20021;-78
2023/09/28 07:16:07;;;;;;;0.50;0.50;;;;;;;;;;5075333;28;20064;-80
2023/09/28 07:18:34;;;;;;;0.50;0.50;;;;;;;;;;5074987;28;20048;-77
2023/09/28 07:21:00;;;;;;;0.60;0.60;;;;;;;;;;5075450;28;20055;-78
2023/09/28 07:23:26;;;;;;;0.60;0.60;;;;;;;;;;5075209;28;20028;-78
2023/09/28 07:25:53;;;;;;;0.50;0.50;;;;;;;;;;5075566;28;20020;-76
2023/09/28 07:28:20;;;;;;;0.50;0.50;;;;;;;;;;5085023;28;20020;-77
2023/09/28 07:30:46;;;;;;;0.60;0.60;;;;;;;;;;5094932;28;20016;-78
2023/09/28 07:33:15;;;;;;;0.50;0.50;;;;;;;;;;5094173;28;20066;-77
2023/09/28 07:35:43;;;;;;;0.60;0.60;;;;;;;;;;5094074;28;20164;-78
2023/09/28 07:38:09;;;;;;;0.68;0.68;;;;;;;;;;5085907;28;20048;-78
2023/09/28 07:40:35;;;;;;;0.50;0.50;;;;;;;;;;5075368;28;20106;-83
2023/09/28 07:43:01;;;;;;;0.47;0.47;;;;;;;;;;5074563;28;20111;-84
2023/09/28 07:45:27;;;;;;;0.40;0.40;;;;;;;;;;5076805;28;20027;-83
2023/09/28 07:47:54;;;;;;;0.50;0.50;;;;;;;;;;5075226;28;20028;-82
2023/09/28 07:50:21;;;;;;;0.50;0.50;;;;;;;;;;5074838;28;20086;-82
2023/09/28 07:52:47;;;;;;;0.40;0.40;;;;;;;;;;5075833;28;20048;-81
2023/09/28 07:55:14;;;;;;;0.40;0.40;;;;;;;;;;5091646;28;20056;-80
2023/09/28 07:57:41;;;;;;;0.40;0.40;;;;;;;;;;5094882;28;20028;-81
2023/09/28 08:00:07;;;;;;;1.35;0.80;;;;;;;;;;5095592;28;20024;-83
2023/09/28 08:02:33;;;;;;;0.50;0.50;;;;;;;;;;5094992;28;20046;-83
2023/09/28 08:05:01;;;;;;;0.40;0.40;;;;;;;;;;5094510;28;20027;-81
2023/09/28 08:07:30;;;;;;;0.40;0.40;;;;;;;;;;5095268;28;20048;-81
2023/09/28 08:09:56;;;;;;;0.40;0.40;;;;;;;;;;5095036;28;20028;-80
2023/09/28 08:12:22;;;;;;;0.40;0.40;;;;;;;;;;5094727;28;20035;-83
2023/09/28 08:14:48;;;;;;;0.45;0.45;;;;;;;;;;5095433;28;20482;-79
2023/09/28 08:17:15;;;;;;;0.50;0.50;;;;;;;;;;5094749;28;20464;-83
2023/09/28 08:19:41;;;;;;;0.40;0.40;;;;;;;;;;5094560;28;20445;-81
2023/09/28 08:22:07;;;;;;;0.50;0.50;;;;;;;;;;5108533;28;20070;-80
2023/09/28 08:24:33;;;;;;;0.40;0.40;;;;;;;;;;5105186;28;20103;-78
2023/09/28 08:26:59;;;;;;;0.38;0.38;;;;;;;;;;5095860;28;20024;-81
2023/09/28 08:29:25;;;;;;;0.50;0.50;;;;;;;;;;5094441;28;20035;-81
2023/09/28 08:31:51;;;;;;;0.40;0.40;;;;;;;;;;5095057;28;20035;-79
2023/09/28 08:34:17;;;;;;;0.30;0.30;;;;;;;;;;5094834;28;20379;-79
2023/09/28 08:36:44;;;;;;;0.40;0.40;;;;;;;;;;5094387;28;20077;-79
2023/09/28 08:39:10;;;;;;;0.40;0.40;;;;;;;;;;5094593;28;20062;-79
2023/09/28 08:41:43;;;;;;;0.40;0.40;;;;;;;;;;5094487;28;20116;-80
2023/09/28 08:44:10;;;;;;;0.30;0.30;;;;;;;;;;5095321;28;20051;-78
2023/09/28 08:46:39;;;;;;;0.40;0.40;;;;;;;;;;5093880;28;20024;-79
2023/09/28 08:49:15;;;;;;;0.40;0.40;;;;;;;;;;5091694;28;20031;-80
2023/09/28 08:51:44;;;;;;;0.30;0.30;;;;;;;;;;5075196;28;20028;-81
2023/09/28 08:54:11;;;;;;;0.40;0.40;;;;;;;;;;5078900;28;20047;-80
2023/09/28 08:56:40;;;;;;;0.30;0.30;;;;;;;;;;5094525;28;20052;-80
2023/09/28 08:59:09;;;;;;;0.30;0.30;;;;;;;;;;5094630;28;20024;-79
2023/09/28 09:01:35;;;;;;;0.30;0.30;;;;;;;;;;5094059;28;20020;-77
2023/09/28 09:04:01;;;;;;;0.30;0.30;;;;;;;;;;5094731;28;20069;-79
2023/09/28 09:06:28;;;;;;;0.30;0.30;;;;;;;;;;5093630;28;20024;-81
2023/09/28 09:08:55;;;;;;;0.30;0.30;;;;;;;;;;5095592;28;20040;-79
2023/09/28 09:11:21;;;;;;;0.30;0.30;;;;;;;;;;5094999;28;20080;-78
2023/09/28 09:13:51;;;;;;;0.30;0.30;;;;;;;;;;5097608;28;20028;-80
2023/09/28 09:16:17;;;;;;;0.40;0.40;;;;;;;;;;5101693;28;20021;-79
2023/09/28 09:18:43;;;;;;;0.30;0.30;;;;;;;;;;5099028;28;20104;-80
2023/09/28 09:21:09;;;;;;;0.30;0.30;;;;;;;;;;5094317;28;20020;-79
2023/09/28 09:23:36;;;;;;;0.30;0.30;;;;;;;;;;5094050;28;20073;-80
2023/09/28 09:26:03;;;;;;;0.30;0.30;;;;;;;;;;5094718;28;20478;-80
2023/09/28 09:28:32;;;;;;;0.30;0.30;;;;;;;;;;5092816;28;20031;-80
2023/09/28 09:30:59;;;;;;;0.40;0.40;;;;;;;;;;5093799;28;20130;-81
2023/09/28 09:33:25;;;;;;;0.30;0.30;;;;;;;;;;5093194;28;20077;-80
2023/09/28 09:35:52;;;;;;;0.30;0.30;;;;;;;;;;5092986;28;20020;-81
2023/09/28 09:38:28;;;;;;;0.73;0.73;;;;;;;;;;5093182;28;20021;-79
2023/09/28 09:41:01;;;;;;;0.30;0.30;;;;;;;;;;5093350;28;20298;-81
2023/09/28 09:43:32;;;;;;;0.30;0.30;;;;;;;;;;5092248;28;20024;-81
2023/09/28 09:45:58;;;;;;;0.40;0.40;;;;;;;;;;5093233;28;20024;-81
2023/09/28 09:48:24;;;;;;;0.30;0.30;;;;;;;;;;5092706;28;20023;-81
2023/09/28 09:50:52;;;;;;;0.30;0.30;;;;;;;;;;5093087;28;20028;-80
2023/09/28 09:53:18;;;;;;;0.30;0.30;;;;;;;;;;5094677;28;20023;-81
2023/09/28 09:55:45;;;;;;;0.30;0.30;;;;;;;;;;5092650;28;20162;-80
2023/09/28 09:58:15;;;;;;;0.30;0.30;;;;;;;;;;5093055;28;20024;-81
2023/09/28 10:00:42;;;;;;;0.25;0.25;;;;;;;;;;5093192;28;20459;-82
2023/09/28 10:03:09;;;;;;;0.20;0.20;;;;;;;;;;5092095;28;20482;-82
2023/09/28 10:05:36;;;;;;;0.30;0.30;;;;;;;;;;5094125;28;20031;-82
2023/09/28 10:08:03;;;;;;;0.30;0.30;;;;;;;;;;5093552;28;20052;-79
2023/09/28 10:10:31;;;;;;;0.30;0.30;;;;;;;;;;5092568;28;20093;-80
2023/09/28 10:12:58;;;;;;;0.30;0.30;;;;;;;;;;5094442;28;20028;-81
2023/09/28 10:15:26;;;;;;;0.28;0.28;;;;;;;;;;5093276;28;20031;-85
2023/09/28 10:17:53;;;;;;;0.28;0.28;;;;;;;;;;5094230;28;20020;-82
2023/09/28 10:20:20;;;;;;;0.30;0.30;;;;;;;;;;5092870;28;20059;-81
2023/09/28 10:22:47;;;;;;;0.30;0.30;;;;;;;;;;5093547;28;20028;-83
2023/09/28 10:25:16;;;;;;;0.30;0.30;;;;;;;;;;5092987;28;20016;-82
2023/09/28 10:27:48;;;;;;;0.20;0.20;;;;;;;;;;5094138;28;20081;-81
2023/09/28 10:30:14;;;;;;;;;;;;;;;;;;5092829;28;20111;-82
2023/09/28 10:32:40;;;;;;;0.20;0.20;;;;;;;;;;5092269;28;19943;-81
2023/09/28 10:35:21;;;;;;;0.20;0.20;;;;;;;;;;5093890;28;20044;-80
2023/09/28 10:38:23;;;;;;;0.20;0.20;;;;;;;;;;5086162;28;20384;-82
2023/09/28 10:41:03;;;;;;;0.20;0.20;;;;;;;;;;5034788;28;20485;-81
2023/09/28 10:43:30;;;;;;;0.20;0.20;;;;;;;;;;5050629;28;20041;-80
2023/09/28 10:45:57;;;;;;;0.20;0.20;;;;;;;;;;5034601;28;20025;-80
2023/09/28 10:48:23;;;;;;;0.40;0.40;;;;;;;;;;5034806;28;20128;-82
2023/09/28 10:50:52;;;;;;;0.25;0.25;;;;;;;;;;5035072;28;20021;-81
2023/09/28 10:53:18;;;;;;;0.25;0.25;;;;;;;;;;5034577;28;20021;-81
2023/09/28 10:55:44;;;;;;;0.22;0.22;;;;;;;;;;5034672;28;20112;-80
2023/09/28 10:58:11;;;;;;;0.20;0.20;;;;;;;;;;5033879;28;20033;-79
2023/09/28 11:00:38;;;;;;;0.20;0.20;;;;;;;;;;5034314;28;20112;-78
2023/09/28 11:03:07;;;;;;;0.20;0.20;;;;;;;;;;5036048;28;20473;-77
2023/09/28 11:05:33;;;;;;;0.20;0.20;;;;;;;;;;5042482;28;20029;-78
2023/09/28 11:08:04;;;;;;;0.20;0.20;;;;;;;;;;5048461;28;20087;-79
2023/09/28 11:10:30;;;;;;;0.20;0.20;;;;;;;;;;5051244;28;20603;-78
2023/09/28 11:12:56;;;;;;;0.30;0.30;;;;;;;;;;5034148;28;20388;-81
2023/09/28 11:15:23;;;;;;;0.20;0.20;;;;;;;;;;5083149;28;20036;-78
2023/09/28 11:17:50;;;;;;;0.20;0.20;;;;;;;;;;5081115;28;20044;-79
2023/09/28 11:20:16;;;;;;;0.20;0.20;;;;;;;;;;5072423;28;20504;-79
2023/09/28 11:22:42;;;;;;;0.20;0.20;;;;;;;;;;5072305;28;20419;-81
2023/09/28 11:25:09;;;;;;;0.20;0.20;;;;;;;;;;5072057;28;20082;-79
2023/09/28 11:27:35;;;;;;;0.20;0.20;;;;;;;;;;5072949;28;20013;-79
2023/09/28 11:30:03;;;;;;;0.20;0.20;;;;;;;;;;5074294;28;20063;-79
2023/09/28 11:32:46;;;;;;;0.30;0.30;;;;;;;;;;5076100;28;20044;-79
2023/09/28 11:35:13;;;;;;;0.20;0.20;;;;;;;;;;5076757;28;20349;-80
2023/09/28 11:37:40;;;;;;;0.20;0.20;;;;;;;;;;5077062;28;20464;-79
2023/09/28 11:40:10;;;;;;;0.22;0.22;;;;;;;;;;5075721;28;20111;-83
2023/09/28 11:42:39;;;;;;;0.20;0.20;;;;;;;;;;5075314;28;20112;-81
2023/09/28 11:45:06;;;;;;;0.10;0.10;;;;;;;;;;5076924;28;20024;-78
2023/09/28 11:47:33;;;;;;;0.20;0.20;;;;;;;;;;5075344;28;20024;-80
2023/09/28 11:50:03;;;;;;;0.20;0.20;;;;;;;;;;5075533;28;20384;-80
2023/09/28 11:52:30;;;;;;;0.17;0.17;;;;;;;;;;5075118;28;20025;-78
2023/09/28 11:54:57;;;;;;;0.45;0.20;;;;;;;;;;5074558;28;20024;-79
2023/09/28 11:57:23;;;;;;;0.20;0.20;;;;;;;;;;5075119;28;20074;-78
2023/09/28 11:59:49;;;;;;;0.17;0.17;;;;;;;;;;5076701;28;20471;-82
2023/09/28 12:02:17;;;;;;;0.20;0.20;;;;;;;;;;5074479;28;20024;-79
2023/09/28 12:04:44;;;;;;;0.20;0.20;;;;;;;;;;5074686;28;20031;-77
2023/09/28 12:07:10;;;;;;;0.10;0.10;;;;;;;;;;5075916;28;20029;-80
2023/09/28 12:09:36;;;;;;;0.13;0.13;;;;;;;;;;5074171;28;20384;-77
2023/09/28 12:12:02;;;;;;;0.10;0.10;;;;;;;;;;5075091;28;20020;-78
2023/09/28 12:14:28;;;;;;;0.30;0.30;;;;;;;;;;5078188;28;20024;-77
2023/09/28 12:16:57;;;;;;;0.10;0.10;;;;;;;;;;5077963;28;20035;-76
2023/09/28 12:19:23;;;;;;;0.17;0.17;;;;;;;;;;5075401;28;20048;-79
2023/09/28 12:21:50;;;;;;;0.10;0.10;;;;;;;;;;5074278;28;20017;-77
2023/09/28 12:24:17;;;;;;;0.10;0.10;;;;;;;;;;5075013;28;20024;-77
2023/09/28 12:26:43;;;;;;;0.10;0.10;;;;;;;;;;5074097;28;20027;-77
2023/09/28 12:29:09;;;;;;;0.10;0.10;;;;;;;;;;5074882;28;20036;-76
2023/09/28 12:31:35;;;;;;;0.30;0.30;;;;;;;;;;5075350;28;20452;-77
2023/09/28 12:34:02;;;;;;;0.10;0.10;;;;;;;;;;5080181;28;20040;-76
2023/09/28 12:36:31;;;;;;;0.10;0.10;;;;;;;;;;5077714;28;20198;-78
2023/09/28 12:38:57;;;;;;;0.10;0.10;;;;;;;;;;5073888;28;20063;-78
2023/09/28 12:41:24;;;;;;;0.10;0.10;;;;;;;;;;5074186;28;20104;-78
2023/09/28 12:43:51;;;;;;;0.10;0.10;;;;;;;;;;5073120;28;20667;-77
2023/09/28 12:46:18;;;;;;;0.10;0.10;;;;;;;;;;5073352;28;20048;-79
2023/09/28 12:48:44;;;;;;;0.10;0.10;;;;;;;;;;5074390;28;20381;-79
2023/09/28 12:51:11;;;;;;;0.10;0.10;;;;;;;;;;5072986;28;20384;-78
2023/09/28 12:53:38;;;;;;;0.10;0.10;;;;;;;;;;5073233;28;20021;-78
2023/09/28 12:56:05;;;;;;;0.10;0.10;;;;;;;;;;5074975;28;20479;-80
2023/09/28 12:58:31;;;;;;;0.10;0.10;;;;;;;;;;5073403;28;20029;-79
2023/09/28 13:00:57;;;;;;;0.10;0.10;;;;;;;;;;5073316;28;20047;-79
2023/09/28 13:03:23;;;;;;;0.10;0.10;;;;;;;;;;5073471;28;20360;-77
2023/09/28 13:05:50;;;;;;;0.10;0.10;;;;;;;;;;5073222;28;20051;-78
2023/09/28 13:08:16;;;;;;;0.10;0.10;;;;;;;;;;5074858;28;20398;-81
2023/09/28 13:10:43;;;;;;;0.10;0.10;;;;;;;;;;5073501;28;20040;-77
2023/09/28 13:13:09;;;;;;;0.10;0.10;;;;;;;;;;5073089;28;20489;-77
2023/09/28 13:15:35;;;;;;;0.10;0.10;;;;;;;;;;5073363;28;20027;-78
2023/09/28 13:18:06;;;;;;;0.10;0.10;;;;;;;;;;5092570;28;20114;-77
2023/09/28 13:20:33;;;;;;;0.10;0.10;;;;;;;;;;5092383;28;20056;-77
2023/09/28 13:23:00;;;;;;;0.10;0.10;;;;;;;;;;5092235;28;20059;-77
2023/09/28 13:25:26;;;;;;;0.10;0.10;;;;;;;;;;5092132;28;20020;-77
2023/09/28 13:27:53;;;;;;;0.10;0.10;;;;;;;;;;5092386;28;20028;-77
2023/09/28 13:30:22;;;;;;;0.10;0.10;;;;;;;;;;5091577;28;20039;-77
2023/09/28 13:32:50;;;;;;;0.10;0.10;;;;;;;;;;5092290;28;20115;-77
2023/09/28 13:35:16;;;;;;;0.10;0.10;;;;;;;;;;5092000;28;20384;-77
2023/09/28 13:37:43;;;;;;;0.10;0.10;;;;;;;;;;5092274;28;20071;-78
2023/09/28 13:40:20;;;;;;;0.10;0.10;;;;;;;;;;5093731;28;20096;-77
2023/09/28 13:42:46;;;;;;;0.10;0.10;;;;;;;;;;5092132;28;20039;-77
2023/09/28 13:45:12;;;;;;;0.10;0.10;;;;;;;;;;5092967;28;20043;-79
2023/09/28 13:47:38;;;;;;;0.10;0.10;;;;;;;;;;5094460;28;20031;-77
2023/09/28 13:50:10;;;;;;;0.10;0.10;;;;;;;;;;5079964;28;20036;-76
2023/09/28 13:52:36;;;;;;;0.10;0.10;;;;;;;;;;5082627;28;20031;-76
2023/09/28 13:55:04;;;;;;;0.10;0.10;;;;;;;;;;5074258;28;20082;-79
2023/09/28 13:57:31;;;;;;;0.10;0.10;;;;;;;;;;5074059;28;20100;-78
2023/09/28 14:00:00;;;;;;;0.10;0.10;;;;;;;;;;5072797;28;20082;-80
2023/09/28 14:02:27;;;;;;;0.10;0.10;;;;;;;;;;5072525;28;20073;-77
2023/09/28 14:04:53;;;;;;;0.10;0.10;;;;;;;;;;5073528;28;20025;-78
2023/09/28 14:07:22;;;;;;;0.20;0.20;;;;;;;;;;5072596;28;20465;-80
2023/09/28 14:09:48;;;;;;;0.43;0.30;;;;;;;;;;5073551;28;20029;-77
2023/09/28 14:12:15;;;;;;;0.10;0.10;;;;;;;;;;5073437;28;20025;-78
2023/09/28 14:14:41;;;;;;;0.10;0.10;;;;;;;;;;5072641;28;20051;-78
2023/09/28 14:17:08;;;;;;;0.20;0.20;;;;;;;;;;5072627;28;20028;-79
2023/09/28 14:19:35;;;;;;;0.20;0.20;;;;;;;;;;5072222;28;20059;-77
2023/09/28 14:22:03;;;;;;;0.10;0.10;;;;;;;;;;5072768;28;20388;-77
2023/09/28 14:24:29;;;;;;;0.10;0.10;;;;;;;;;;5072820;28;20025;-77
2023/09/28 14:26:56;;;;;;;0.10;0.10;;;;;;;;;;5072169;28;20021;-76
2023/09/28 14:29:22;;;;;;;0.20;0.20;;;;;;;;;;5072834;28;20151;-77
2023/09/28 14:31:48;;;;;;;0.10;0.10;;;;;;;;;;5072209;28;20081;-77
2023/09/28 14:34:14;;;;;;;0.20;0.20;;;;;;;;;;5072371;28;20052;-77
2023/09/28 14:36:41;;;;;;;0.10;0.10;;;;;;;;;;5072917;28;20112;-76
2023/09/28 14:39:07;;;;;;;0.10;0.10;;;;;;;;;;5071987;28;20361;-77
2023/09/28 14:41:37;;;;;;;0.20;0.20;;;;;;;;;;5072294;28;20025;-77
2023/09/28 14:44:04;;;;;;;0.10;0.10;;;;;;;;;;5073296;28;20360;-77